createdAt,value
2023-04-08T00:00:13.367Z,1.67
2023-04-08T00:02:42.090Z,1.73
2023-04-08T00:05:09.662Z,1.88
2023-04-08T00:07:37.554Z,2.20
2023-04-08T00:10:06.788Z,2.08
2023-04-08T00:12:34.341Z,2.45
2023-04-08T00:15:01.840Z,3.28
2023-04-08T00:17:29.326Z,3.03
2023-04-08T00:19:56.884Z,3.10
2023-04-08T00:22:24.798Z,3.80
2023-04-08T00:24:52.284Z,3.78
2023-04-08T00:27:19.924Z,2.40
2023-04-08T00:29:47.359Z,2.90
2023-04-08T00:32:15.020Z,3.63
2023-04-08T00:34:43.462Z,2.90
2023-04-08T00:37:11.198Z,3.58
2023-04-08T00:39:38.700Z,3.58
2023-04-08T00:42:06.250Z,3.10
2023-04-08T00:44:33.870Z,3.25
2023-04-08T00:47:01.471Z,3.47
2023-04-08T00:49:29.088Z,2.88
2023-04-08T00:51:56.580Z,3.45
2023-04-08T00:54:24.241Z,4.00
2023-04-08T00:56:51.688Z,4.28
2023-04-08T00:59:19.294Z,3.38
2023-04-08T01:01:59.749Z,3.78
2023-04-08T01:04:38.120Z,3.33
2023-04-08T01:07:28.305Z,3.33
2023-04-08T01:09:59.179Z,3.28
2023-04-08T01:12:32.324Z,3.85
2023-04-08T01:15:05.696Z,3.30
2023-04-08T01:17:34.483Z,3.58
2023-04-08T01:20:04.309Z,3.67
2023-04-08T01:23:11.537Z,3.50
2023-04-08T01:25:39.842Z,2.88
2023-04-08T01:28:16.932Z,3.45
2023-04-08T01:30:47.435Z,4.20
2023-04-08T01:33:16.830Z,4.13
2023-04-08T01:35:45.862Z,4.00
2023-04-08T01:38:18.205Z,3.20
2023-04-08T01:40:47.399Z,3.47
2023-04-08T01:43:18.022Z,3.45
2023-04-08T01:45:47.171Z,3.47
2023-04-08T01:48:15.974Z,4.25
2023-04-08T01:50:45.520Z,3.30
2023-04-08T01:53:14.246Z,3.90
2023-04-08T01:55:43.390Z,3.90
2023-04-08T01:58:20.162Z,3.55
2023-04-08T02:00:48.737Z,3.92
2023-04-08T02:03:20.552Z,3.72
2023-04-08T02:05:48.248Z,4.15
2023-04-08T02:08:15.992Z,3.92
2023-04-08T02:10:43.426Z,3.70
2023-04-08T02:13:10.866Z,3.47
2023-04-08T02:15:43.600Z,5.07
2023-04-08T02:18:17.586Z,4.40
2023-04-08T02:20:51.554Z,3.90
2023-04-08T02:23:25.300Z,3.78
2023-04-08T02:25:56.935Z,4.30
2023-04-08T02:28:29.305Z,3.60
2023-04-08T02:31:00.838Z,4.60
2023-04-08T02:33:28.956Z,5.10
2023-04-08T02:35:57.652Z,3.90
2023-04-08T02:38:29.942Z,3.58
2023-04-08T02:40:58.230Z,4.32
2023-04-08T02:43:32.629Z,3.67
2023-04-08T02:46:04.627Z,4.13
2023-04-08T02:48:32.302Z,3.97
2023-04-08T02:50:59.833Z,4.18
2023-04-08T02:53:27.485Z,4.55
2023-04-08T02:55:55.112Z,4.30
2023-04-08T02:58:22.519Z,4.05
2023-04-08T03:00:50.219Z,3.72
2023-04-08T03:03:17.786Z,3.97
2023-04-08T03:05:45.388Z,3.80
2023-04-08T03:08:12.910Z,4.80
2023-04-08T03:10:40.505Z,4.80
2023-04-08T03:13:07.933Z,4.53
2023-04-08T03:15:35.662Z,3.67
2023-04-08T03:18:03.550Z,3.53
2023-04-08T03:20:31.254Z,4.55
2023-04-08T03:22:58.682Z,4.63
2023-04-08T03:25:26.692Z,4.38
2023-04-08T03:27:54.210Z,3.83
2023-04-08T03:30:22.047Z,4.70
2023-04-08T03:32:49.566Z,4.70
2023-04-08T03:35:17.049Z,4.90
2023-04-08T03:37:44.725Z,4.80
2023-04-08T03:40:12.879Z,4.10
2023-04-08T03:42:40.811Z,5.07
2023-04-08T03:45:08.880Z,4.15
2023-04-08T03:47:36.452Z,4.20
2023-04-08T03:50:03.929Z,5.05
2023-04-08T03:52:31.534Z,5.38
2023-04-08T03:54:59.137Z,5.68
2023-04-08T03:57:26.583Z,5.22
2023-04-08T03:59:54.361Z,5.47
2023-04-08T04:02:21.947Z,4.90
2023-04-08T04:04:49.672Z,4.55
2023-04-08T04:07:17.295Z,4.95
2023-04-08T04:09:44.823Z,4.95
2023-04-08T04:12:12.269Z,5.03
2023-04-08T04:14:39.932Z,5.28
2023-04-08T04:17:07.398Z,5.10
2023-04-08T04:19:34.889Z,5.70
2023-04-08T04:22:02.533Z,5.80
2023-04-08T04:24:29.974Z,4.82
2023-04-08T04:26:57.419Z,4.70
2023-04-08T04:29:25.090Z,5.05
2023-04-08T04:31:52.477Z,5.22
2023-04-08T04:34:19.889Z,5.97
2023-04-08T04:36:47.462Z,5.47
2023-04-08T04:39:14.849Z,5.65
2023-04-08T04:41:42.243Z,5.10
2023-04-08T04:44:09.782Z,5.15
2023-04-08T04:46:37.369Z,5.53
2023-04-08T04:49:04.960Z,5.35
2023-04-08T04:51:35.703Z,4.72
2023-04-08T04:54:03.530Z,4.65
2023-04-08T04:56:31.264Z,3.88
2023-04-08T04:58:58.886Z,4.22
2023-04-08T05:01:26.745Z,6.00
2023-04-08T05:03:54.492Z,4.65
2023-04-08T05:06:23.827Z,4.95
2023-04-08T05:08:52.192Z,5.38
2023-04-08T05:11:19.895Z,6.35
2023-04-08T05:13:47.531Z,4.18
2023-04-08T05:16:15.068Z,4.55
2023-04-08T05:18:42.954Z,4.22
2023-04-08T05:21:11.061Z,4.40
2023-04-08T05:23:38.695Z,5.28
2023-04-08T05:26:09.239Z,4.53
2023-04-08T05:28:36.863Z,4.72
2023-04-08T05:31:04.491Z,5.00
2023-04-08T05:33:32.213Z,4.47
2023-04-08T05:35:59.918Z,5.00
2023-04-08T05:38:27.770Z,4.38
2023-04-08T05:40:55.342Z,5.40
2023-04-08T05:43:22.828Z,4.03
2023-04-08T05:45:50.456Z,3.90
2023-04-08T05:48:18.164Z,4.10
2023-04-08T05:50:46.712Z,4.00
2023-04-08T05:53:14.785Z,4.22
2023-04-08T05:55:42.169Z,4.15
2023-04-08T05:58:10.105Z,3.72
2023-04-08T06:00:37.740Z,4.43
2023-04-08T06:03:05.577Z,4.55
2023-04-08T06:05:33.261Z,4.05
2023-04-08T06:08:00.910Z,4.78
2023-04-08T06:10:28.802Z,4.35
2023-04-08T06:12:56.387Z,4.50
2023-04-08T06:15:23.947Z,4.43
2023-04-08T06:17:51.666Z,3.80
2023-04-08T06:20:19.143Z,3.70
2023-04-08T06:22:46.800Z,3.88
2023-04-08T06:25:14.260Z,4.65
2023-04-08T06:27:41.835Z,4.35
2023-04-08T06:30:09.854Z,5.65
2023-04-08T06:32:38.035Z,4.03
2023-04-08T06:35:06.273Z,5.28
2023-04-08T06:37:34.476Z,4.95
2023-04-08T06:40:02.212Z,5.05
2023-04-08T06:42:29.737Z,5.82
2023-04-08T06:45:10.056Z,5.82
2023-04-08T06:47:37.623Z,4.93
2023-04-08T06:50:05.864Z,6.22
2023-04-08T06:52:33.445Z,5.72
2023-04-08T06:55:00.860Z,5.90
2023-04-08T06:57:28.389Z,5.60
2023-04-08T06:59:56.160Z,5.88
2023-04-08T07:02:23.744Z,5.70
2023-04-08T07:04:51.095Z,7.30
2023-04-08T07:07:18.693Z,6.93
2023-04-08T07:09:46.835Z,6.90
2023-04-08T07:12:14.432Z,6.50
2023-04-08T07:14:41.839Z,7.55
2023-04-08T07:17:09.469Z,7.07
2023-04-08T07:19:37.666Z,6.35
2023-04-08T07:22:06.090Z,6.72
2023-04-08T07:24:34.558Z,5.70
2023-04-08T07:27:02.357Z,7.05
2023-04-08T07:29:29.787Z,7.03
2023-04-08T07:31:57.240Z,6.65
2023-04-08T07:34:24.767Z,6.47
2023-04-08T07:36:52.171Z,6.97
2023-04-08T07:39:19.977Z,7.28
2023-04-08T07:41:47.433Z,7.20
2023-04-08T07:44:17.406Z,6.72
2023-04-08T07:46:46.491Z,7.32
2023-04-08T07:49:14.312Z,7.32
2023-04-08T07:51:42.140Z,8.20
2023-04-08T07:54:12.164Z,7.30
2023-04-08T07:56:43.374Z,6.68
2023-04-08T07:59:11.926Z,7.20
2023-04-08T08:01:39.532Z,7.25
2023-04-08T08:04:07.430Z,6.82
2023-04-08T08:06:34.950Z,6.43
2023-04-08T08:09:02.330Z,6.10
2023-04-08T08:11:30.005Z,6.20
2023-04-08T08:13:57.818Z,6.47
2023-04-08T08:16:29.942Z,6.60
2023-04-08T08:18:57.703Z,6.97
2023-04-08T08:21:25.138Z,6.07
2023-04-08T08:23:54.926Z,4.93
2023-04-08T08:26:23.175Z,5.55
2023-04-08T08:28:50.804Z,5.38
2023-04-08T08:31:18.144Z,4.82
2023-04-08T08:33:46.876Z,4.18
2023-04-08T08:36:14.429Z,3.13
2023-04-08T08:38:42.098Z,3.40
2023-04-08T08:41:09.628Z,3.85
2023-04-08T08:43:38.573Z,3.92
2023-04-08T08:46:12.101Z,3.35
2023-04-08T08:48:40.857Z,3.70
2023-04-08T08:51:12.404Z,5.00
2023-04-08T08:53:39.981Z,5.65
2023-04-08T08:58:40.395Z,6.03
2023-04-08T09:01:36.144Z,4.18
2023-04-08T09:04:15.974Z,4.45
2023-04-08T09:06:44.964Z,4.30
2023-04-08T09:09:12.355Z,4.28
2023-04-08T09:11:43.876Z,4.13
2023-04-08T09:14:21.584Z,5.15
2023-04-08T09:16:49.277Z,3.97
2023-04-08T09:19:16.716Z,4.70
2023-04-08T09:21:44.405Z,4.93
2023-04-08T09:24:29.135Z,4.65
2023-04-08T09:26:56.818Z,5.45
2023-04-08T09:29:27.643Z,3.45
2023-04-08T09:31:58.369Z,6.18
2023-04-08T09:34:27.872Z,3.63
2023-04-08T09:36:56.492Z,3.20
2023-04-08T09:39:24.202Z,2.35
2023-04-08T09:41:52.801Z,1.60
2023-04-08T09:44:21.958Z,1.15
2023-04-08T09:47:13.689Z,1.52
2023-04-08T09:49:50.035Z,1.77
2023-04-08T09:52:45.907Z,1.80
2023-04-08T09:55:14.487Z,1.10
2023-04-08T09:57:46.973Z,1.17
2023-04-08T10:00:16.323Z,1.38
2023-04-08T10:03:11.868Z,1.27
2023-04-08T10:05:42.041Z,1.40
2023-04-08T10:08:10.169Z,1.45
2023-04-08T10:10:40.887Z,1.65
2023-04-08T10:13:09.312Z,1.08
2023-04-08T10:15:38.619Z,1.80
2023-04-08T10:18:06.402Z,1.67
2023-04-08T10:20:36.856Z,0.93
2023-04-08T10:23:05.635Z,1.58
2023-04-08T10:25:35.029Z,1.65
2023-04-08T10:28:18.016Z,1.40
2023-04-08T10:30:47.716Z,2.08
2023-04-08T10:33:23.519Z,1.50
2023-04-08T10:35:55.057Z,3.00
2023-04-08T10:38:22.572Z,2.00
2023-04-08T10:40:50.167Z,2.90
2023-04-08T10:43:17.769Z,3.15
2023-04-08T10:45:48.535Z,1.83
2023-04-08T10:48:24.736Z,1.85
2023-04-08T10:50:59.864Z,1.63
2023-04-08T10:53:34.771Z,1.25
2023-04-08T10:56:15.806Z,1.90
2023-04-08T10:58:55.298Z,2.17
2023-04-08T11:01:23.835Z,2.45
2023-04-08T11:03:51.813Z,3.72
2023-04-08T11:06:19.908Z,1.52
2023-04-08T11:08:47.477Z,1.98
2023-04-08T11:11:15.620Z,1.67
2023-04-08T11:13:52.680Z,1.40
2023-04-08T11:16:24.172Z,1.88
2023-04-08T11:18:52.121Z,1.70
2023-04-08T11:21:19.846Z,1.38
2023-04-08T11:23:51.172Z,1.90
2023-04-08T11:26:20.344Z,1.83
2023-04-08T11:28:52.069Z,1.63
2023-04-08T11:31:22.795Z,1.67
2023-04-08T11:33:54.842Z,2.00
2023-04-08T11:36:22.507Z,1.40
2023-04-08T11:38:49.947Z,1.23
2023-04-08T11:41:17.906Z,1.45
2023-04-08T11:43:56.635Z,2.22
2023-04-08T11:46:25.056Z,1.05
2023-04-08T11:49:10.137Z,1.23
2023-04-08T11:54:29.007Z,0.68
2023-04-08T11:56:59.338Z,1.25
2023-04-08T11:59:28.969Z,0.80
2023-04-08T12:01:56.814Z,1.00
2023-04-08T12:04:24.359Z,1.00
2023-04-08T12:06:52.569Z,1.10
2023-04-08T12:09:19.857Z,1.20
2023-04-08T12:11:47.139Z,1.10
2023-04-08T12:14:15.379Z,1.45
2023-04-08T12:16:42.717Z,1.25
2023-04-08T12:19:09.990Z,0.80
2023-04-08T12:21:38.389Z,0.85
2023-04-08T12:24:05.862Z,0.95
2023-04-08T12:26:33.171Z,1.45
2023-04-08T12:29:00.867Z,0.88
2023-04-08T12:31:28.639Z,1.08
2023-04-08T12:33:55.965Z,1.15
2023-04-08T12:36:23.249Z,0.80
2023-04-08T12:38:50.808Z,0.85
2023-04-08T12:41:18.622Z,0.80
2023-04-08T12:43:45.974Z,0.70
2023-04-08T12:46:13.622Z,1.00
2023-04-08T12:48:41.072Z,1.10
2023-04-08T12:51:10.565Z,1.15
2023-04-08T12:53:38.036Z,0.98
2023-04-08T12:56:05.753Z,0.70
2023-04-08T12:58:33.162Z,0.65
2023-04-08T13:01:00.582Z,0.60
2023-04-08T13:03:30.604Z,1.08
2023-04-08T13:05:59.266Z,0.80
2023-04-08T13:08:26.787Z,0.70
2023-04-08T13:10:55.063Z,0.70
2023-04-08T13:13:22.575Z,0.98
2023-04-08T13:15:50.082Z,1.02
2023-04-08T13:18:17.383Z,0.80
2023-04-08T13:20:44.683Z,1.13
2023-04-08T13:23:12.061Z,1.10
2023-04-08T13:25:39.905Z,1.20
2023-04-08T13:28:07.203Z,1.00
2023-04-08T13:30:34.799Z,1.15
2023-04-08T13:33:02.172Z,0.70
2023-04-08T13:35:29.615Z,1.10
2023-04-08T13:37:56.961Z,1.08
2023-04-08T13:40:24.347Z,1.25
2023-04-08T13:42:51.857Z,0.93
2023-04-08T13:45:20.356Z,0.80
2023-04-08T13:47:47.776Z,1.00
2023-04-08T13:50:15.153Z,1.25
2023-04-08T13:52:42.452Z,0.60
2023-04-08T13:55:09.843Z,0.90
2023-04-08T13:57:37.292Z,1.02
2023-04-08T14:00:05.262Z,0.85
2023-04-08T14:02:37.998Z,1.10
2023-04-08T14:05:06.055Z,1.10
2023-04-08T14:07:33.358Z,0.50
2023-04-08T14:10:00.710Z,0.77
2023-04-08T14:12:28.204Z,0.70
2023-04-08T14:14:55.605Z,1.02
2023-04-08T14:17:23.070Z,0.75
2023-04-08T14:19:51.279Z,1.10
2023-04-08T14:22:19.226Z,0.85
2023-04-08T14:24:46.719Z,0.90
2023-04-08T14:27:14.093Z,0.68
2023-04-08T14:29:41.709Z,0.95
2023-04-08T14:32:09.068Z,0.80
2023-04-08T14:34:37.560Z,1.30
2023-04-08T14:37:05.486Z,0.90
2023-04-08T14:39:32.941Z,0.70
2023-04-08T14:42:00.373Z,1.20
2023-04-08T14:44:27.789Z,0.77
2023-04-08T14:46:55.113Z,0.70
2023-04-08T14:49:22.481Z,0.90
2023-04-08T14:51:51.295Z,0.60
2023-04-08T14:54:20.750Z,0.80
2023-04-08T14:56:48.034Z,0.60
2023-04-08T14:59:15.446Z,0.73
2023-04-08T15:01:45.066Z,0.93
2023-04-08T15:04:12.495Z,0.77
2023-04-08T15:06:40.577Z,0.70
2023-04-08T15:09:09.112Z,0.90
2023-04-08T15:11:36.547Z,0.70
2023-04-08T15:14:04.145Z,0.80
2023-04-08T15:16:31.618Z,0.80
2023-04-08T15:19:02.323Z,0.95
2023-04-08T15:21:29.603Z,1.10
2023-04-08T15:23:56.892Z,0.85
2023-04-08T15:26:24.718Z,0.90
2023-04-08T15:28:54.733Z,0.90
2023-04-08T15:31:22.933Z,0.70
2023-04-08T15:33:50.486Z,0.82
2023-04-08T15:36:20.880Z,0.73
2023-04-08T15:38:48.806Z,0.70
2023-04-08T15:41:18.472Z,1.23
2023-04-08T15:43:46.431Z,1.08
2023-04-08T15:46:23.493Z,1.20
2023-04-08T15:48:51.451Z,0.73
2023-04-08T15:51:19.840Z,0.82
2023-04-08T15:53:47.356Z,1.02
2023-04-08T15:56:16.453Z,1.25
2023-04-08T15:58:44.970Z,0.70
2023-04-08T16:01:12.806Z,1.10
2023-04-08T16:03:40.147Z,1.17
2023-04-08T16:06:08.736Z,0.80
2023-04-08T16:08:37.268Z,0.70
2023-04-08T16:11:06.349Z,1.10
2023-04-08T16:13:34.391Z,0.90
2023-04-08T16:16:02.729Z,0.60
2023-04-08T16:18:30.641Z,0.50
2023-04-08T16:20:57.980Z,0.60
2023-04-08T16:23:25.627Z,0.60
2023-04-08T16:25:53.702Z,0.60
2023-04-08T16:28:22.029Z,0.60
2023-04-08T16:30:49.267Z,0.50
2023-04-08T16:33:16.710Z,1.15
2023-04-08T16:35:44.100Z,0.80
2023-04-08T16:38:11.422Z,0.70
2023-04-08T16:40:39.288Z,0.50
2023-04-08T16:43:06.803Z,0.50
2023-04-08T16:45:34.078Z,0.73
2023-04-08T16:48:01.550Z,0.60
2023-04-08T16:50:28.898Z,0.47
2023-04-08T16:52:56.736Z,0.35
2023-04-08T16:55:24.075Z,0.50
2023-04-08T16:57:51.310Z,0.60
2023-04-08T17:00:20.970Z,0.50
2023-04-08T17:02:48.532Z,0.70
2023-04-08T17:05:16.278Z,0.50
2023-04-08T17:07:43.708Z,0.63
2023-04-08T17:10:11.174Z,0.50
2023-04-08T17:12:38.569Z,0.70
2023-04-08T17:15:06.603Z,0.60
2023-04-08T17:17:33.908Z,0.43
2023-04-08T17:20:01.366Z,0.63
2023-04-08T17:22:28.660Z,0.50
2023-04-08T17:24:56.128Z,0.50
2023-04-08T17:27:23.741Z,0.55
2023-04-08T17:29:56.442Z,0.60
2023-04-08T17:32:27.707Z,0.85
2023-04-08T17:34:55.639Z,0.68
2023-04-08T17:37:22.950Z,0.70
2023-04-08T17:39:51.858Z,0.52
2023-04-08T17:42:22.914Z,0.80
2023-04-08T17:44:50.268Z,0.80
2023-04-08T17:47:17.629Z,0.95
2023-04-08T17:49:44.898Z,0.75
2023-04-08T17:52:12.407Z,0.70
2023-04-08T17:54:41.538Z,1.05
2023-04-08T17:57:09.092Z,0.70
2023-04-08T17:59:36.464Z,0.82
2023-04-08T18:02:04.215Z,0.63
2023-04-08T18:04:31.697Z,0.90
2023-04-08T18:06:59.270Z,0.90
2023-04-08T18:09:26.768Z,0.90
2023-04-08T18:11:54.272Z,0.77
2023-04-08T18:14:21.621Z,1.00
2023-04-08T18:16:49.204Z,0.80
2023-04-08T18:19:16.658Z,1.15
2023-04-08T18:21:44.075Z,1.48
2023-04-08T18:24:11.467Z,1.05
2023-04-08T18:26:39.125Z,1.75
2023-04-08T18:29:06.809Z,4.57
2023-04-08T18:31:34.327Z,3.25
2023-04-08T18:34:02.333Z,2.65
2023-04-08T18:36:29.749Z,3.60
2023-04-08T18:38:57.587Z,1.60
2023-04-08T18:41:25.702Z,1.63
2023-04-08T18:43:53.373Z,1.10
2023-04-08T18:46:20.966Z,1.23
2023-04-08T18:48:49.383Z,0.77
2023-04-08T18:51:16.953Z,0.90
2023-04-08T18:53:44.509Z,0.80
2023-04-08T18:56:19.457Z,0.95
2023-04-08T18:58:47.257Z,0.90
2023-04-08T19:01:15.052Z,1.10
2023-04-08T19:03:46.016Z,0.90
2023-04-08T19:06:13.930Z,1.27
2023-04-08T19:08:41.654Z,1.30
2023-04-08T19:11:08.997Z,1.30
2023-04-08T19:13:37.113Z,1.17
2023-04-08T19:16:05.042Z,1.05
2023-04-08T19:18:32.663Z,1.38
2023-04-08T19:21:01.312Z,1.00
2023-04-08T19:23:28.957Z,1.10
2023-04-08T19:25:56.411Z,1.50
2023-04-08T19:28:23.839Z,1.00
2023-04-08T19:30:51.307Z,1.02
2023-04-08T19:33:18.784Z,0.90
2023-04-08T19:35:48.922Z,1.27
2023-04-08T19:38:16.218Z,1.20
2023-04-08T19:40:43.574Z,1.27
2023-04-08T19:43:10.872Z,1.63
2023-04-08T19:45:38.174Z,1.80
2023-04-08T19:48:05.709Z,2.08
2023-04-08T19:50:33.330Z,1.60
2023-04-08T19:53:00.798Z,2.05
2023-04-08T19:55:28.265Z,2.22
2023-04-08T19:57:56.074Z,2.15
2023-04-08T20:00:23.862Z,3.30
2023-04-08T20:02:51.517Z,4.07
2023-04-08T20:05:19.061Z,3.47
2023-04-08T20:07:46.597Z,4.32
2023-04-08T20:10:14.660Z,2.53
2023-04-08T20:12:42.193Z,2.40
2023-04-08T20:15:23.045Z,3.22
2023-04-08T20:17:51.574Z,3.53
2023-04-08T20:20:19.164Z,3.08
2023-04-08T20:22:46.793Z,2.80
2023-04-08T20:25:14.287Z,4.07
2023-04-08T20:27:41.891Z,2.70
2023-04-08T20:30:10.596Z,2.95
2023-04-08T20:32:37.954Z,3.22
2023-04-08T20:35:06.015Z,4.50
2023-04-08T20:37:33.673Z,3.55
2023-04-08T20:40:01.189Z,4.07
2023-04-08T20:42:28.892Z,3.22
2023-04-08T20:44:56.232Z,3.83
2023-04-08T20:47:24.875Z,3.45
2023-04-08T20:49:52.567Z,3.55
2023-04-08T20:52:20.039Z,3.83
2023-04-08T20:54:47.350Z,3.38
2023-04-08T20:57:14.700Z,4.57
2023-04-08T20:59:42.439Z,4.65
2023-04-08T21:02:10.390Z,5.28
2023-04-08T21:04:37.998Z,5.75
2023-04-08T21:07:05.525Z,6.07
2023-04-08T21:09:32.807Z,4.60
2023-04-08T21:12:01.441Z,5.10
2023-04-08T21:14:31.071Z,5.60
2023-04-08T21:16:59.001Z,5.50
2023-04-08T21:19:26.478Z,6.13
2023-04-08T21:21:53.831Z,6.95
2023-04-08T21:24:21.492Z,8.32
2023-04-08T21:26:49.067Z,8.88
2023-04-08T21:29:16.493Z,7.53
2023-04-08T21:31:43.799Z,7.10
2023-04-08T21:34:11.538Z,8.88
2023-04-08T21:36:39.010Z,9.02
2023-04-08T21:39:06.539Z,10.40
2023-04-08T21:41:33.832Z,9.43
2023-04-08T21:44:01.361Z,8.63
2023-04-08T21:46:28.881Z,9.90
2023-04-08T21:48:56.151Z,8.73
2023-04-08T21:51:23.521Z,8.65
2023-04-08T21:53:52.110Z,8.82
2023-04-08T21:56:19.805Z,9.27
2023-04-08T21:58:47.147Z,9.88
2023-04-08T22:01:14.486Z,10.02
2023-04-08T22:03:41.843Z,9.90
2023-04-08T22:06:12.708Z,11.27
2023-04-08T22:11:11.320Z,9.52
2023-04-08T22:13:38.660Z,10.55
2023-04-08T22:16:07.643Z,10.65
2023-04-08T22:18:35.229Z,10.40
2023-04-08T22:21:02.590Z,10.90
2023-04-08T22:23:29.936Z,11.38
2023-04-08T22:25:57.394Z,11.45
2023-04-08T22:28:24.961Z,11.60
2023-04-08T22:30:55.124Z,10.88
2023-04-08T22:33:22.685Z,10.73
2023-04-08T22:35:50.224Z,10.57
2023-04-08T22:38:17.640Z,10.77
2023-04-08T22:40:45.048Z,10.93
2023-04-08T22:43:12.424Z,11.18
2023-04-08T22:45:39.803Z,12.45
2023-04-08T22:48:07.441Z,13.13
2023-04-08T22:50:34.891Z,11.65
2023-04-08T22:53:02.359Z,11.50
2023-04-08T22:55:30.936Z,12.30
2023-04-08T22:57:58.555Z,12.55
2023-04-08T23:00:26.275Z,12.35
2023-04-08T23:02:53.959Z,13.38
2023-04-08T23:05:21.620Z,11.93
2023-04-08T23:07:49.041Z,12.45
2023-04-08T23:10:16.527Z,13.48
2023-04-08T23:12:43.987Z,12.68
2023-04-08T23:15:11.622Z,13.18
2023-04-08T23:17:39.177Z,12.65
2023-04-08T23:20:07.192Z,13.05
2023-04-08T23:22:34.624Z,13.10
2023-04-08T23:25:02.360Z,12.60
2023-04-08T23:27:29.703Z,11.82
2023-04-08T23:29:57.098Z,12.77
2023-04-08T23:32:24.543Z,13.13
2023-04-08T23:34:52.140Z,15.00
2023-04-08T23:37:19.546Z,13.48
2023-04-08T23:39:47.014Z,14.52
2023-04-08T23:42:14.518Z,14.80
2023-04-08T23:44:41.830Z,13.65
2023-04-08T23:47:09.648Z,15.20
2023-04-08T23:49:36.951Z,14.88
2023-04-08T23:52:04.758Z,14.70
2023-04-08T23:54:33.883Z,14.45
2023-04-08T23:57:01.869Z,15.05
2023-04-08T23:59:29.293Z,15.45
